createdAt,value
2022-08-26T00:01:52.274Z,99.90
2022-08-26T00:04:19.515Z,99.90
2022-08-26T00:06:46.587Z,99.90
2022-08-26T00:09:15.992Z,99.90
2022-08-26T00:11:44.194Z,99.90
2022-08-26T00:14:11.953Z,99.90
2022-08-26T00:16:40.984Z,99.90
2022-08-26T00:19:14.472Z,99.90
2022-08-26T00:21:41.704Z,99.90
2022-08-26T00:24:09.228Z,99.90
2022-08-26T00:26:36.406Z,99.90
2022-08-26T00:29:03.515Z,99.90
2022-08-26T00:31:32.492Z,99.90
2022-08-26T00:33:59.806Z,99.90
2022-08-26T00:36:29.809Z,99.90
2022-08-26T00:38:57.640Z,99.90
2022-08-26T00:41:24.690Z,99.90
2022-08-26T00:43:53.309Z,99.90
2022-08-26T00:46:22.667Z,99.90
2022-08-26T00:48:50.349Z,99.90
2022-08-26T00:51:19.740Z,99.90
2022-08-26T00:53:58.728Z,99.90
2022-08-26T00:56:33.061Z,99.90
2022-08-26T00:59:05.300Z,99.90
2022-08-26T01:01:32.699Z,99.90
2022-08-26T01:04:00.513Z,99.90
2022-08-26T01:06:27.567Z,99.90
2022-08-26T01:08:54.844Z,99.90
2022-08-26T01:11:22.345Z,99.90
2022-08-26T01:13:51.823Z,99.90
2022-08-26T01:16:19.059Z,99.90
2022-08-26T01:18:48.584Z,99.90
2022-08-26T01:21:27.379Z,99.90
2022-08-26T01:23:57.924Z,99.90
2022-08-26T01:26:27.344Z,99.90
2022-08-26T01:28:56.725Z,99.90
2022-08-26T01:31:25.669Z,99.90
2022-08-26T01:33:55.697Z,99.90
2022-08-26T01:36:25.031Z,99.90
2022-08-26T01:38:52.984Z,99.90
2022-08-26T01:41:27.185Z,99.90
2022-08-26T01:43:56.681Z,99.90
2022-08-26T01:46:26.142Z,99.90
2022-08-26T01:48:55.254Z,99.90
2022-08-26T01:51:23.412Z,99.90
2022-08-26T01:53:50.553Z,99.90
2022-08-26T01:56:17.683Z,99.90
2022-08-26T01:58:46.764Z,99.90
2022-08-26T02:01:14.153Z,99.90
2022-08-26T02:04:03.483Z,99.90
2022-08-26T02:06:30.762Z,99.90
2022-08-26T02:09:00.871Z,99.90
2022-08-26T02:11:28.318Z,99.90
2022-08-26T02:13:58.278Z,99.90
2022-08-26T02:16:27.088Z,99.90
2022-08-26T02:18:55.639Z,99.90
2022-08-26T02:21:24.923Z,99.90
2022-08-26T02:23:52.501Z,99.90
2022-08-26T02:26:24.020Z,99.90
2022-08-26T02:29:02.018Z,99.90
2022-08-26T02:31:29.136Z,99.90
2022-08-26T02:33:56.086Z,99.90
2022-08-26T02:36:25.140Z,99.90
2022-08-26T02:38:55.847Z,99.90
2022-08-26T02:41:23.658Z,99.90
2022-08-26T02:43:51.713Z,99.90
2022-08-26T02:46:21.333Z,99.90
2022-08-26T02:48:55.148Z,99.90
2022-08-26T02:51:22.199Z,99.90
2022-08-26T02:53:50.106Z,99.90
2022-08-26T02:56:18.403Z,99.90
2022-08-26T02:58:45.694Z,99.90
2022-08-26T03:01:23.327Z,99.90
2022-08-26T03:03:50.694Z,99.90
2022-08-26T03:06:18.492Z,99.90
2022-08-26T03:08:46.314Z,99.90
2022-08-26T03:11:14.295Z,99.90
2022-08-26T03:13:42.283Z,99.90
2022-08-26T03:16:09.415Z,99.90
2022-08-26T03:18:36.893Z,99.90
2022-08-26T03:21:08.639Z,99.90
2022-08-26T03:23:35.700Z,99.90
2022-08-26T03:26:02.785Z,99.90
2022-08-26T03:28:29.932Z,99.90
2022-08-26T03:30:57.950Z,99.90
2022-08-26T03:33:26.018Z,99.90
2022-08-26T03:35:53.806Z,99.90
2022-08-26T03:38:22.914Z,99.90
2022-08-26T03:40:49.960Z,99.90
2022-08-26T03:43:18.616Z,99.90
2022-08-26T03:45:46.030Z,99.90
2022-08-26T03:48:14.032Z,99.90
2022-08-26T03:50:41.928Z,99.90
2022-08-26T03:53:13.098Z,99.90
2022-08-26T03:55:41.572Z,99.90
2022-08-26T03:58:08.664Z,99.90
2022-08-26T04:00:35.648Z,99.90
2022-08-26T04:03:03.207Z,99.90
2022-08-26T04:05:30.310Z,99.90
2022-08-26T04:07:57.299Z,99.90
2022-08-26T04:10:28.788Z,99.90
2022-08-26T04:12:58.888Z,99.90
2022-08-26T04:15:27.051Z,99.90
2022-08-26T04:17:54.096Z,99.90
2022-08-26T04:20:22.994Z,99.90
2022-08-26T04:22:50.804Z,99.90
2022-08-26T04:25:18.762Z,99.90
2022-08-26T04:27:48.278Z,99.90
2022-08-26T04:30:15.931Z,99.90
2022-08-26T04:32:44.092Z,99.90
2022-08-26T04:35:11.116Z,99.90
2022-08-26T04:37:38.235Z,99.90
2022-08-26T04:40:06.014Z,99.90
2022-08-26T04:42:33.548Z,99.90
2022-08-26T04:45:01.634Z,99.90
2022-08-26T04:47:33.055Z,99.90
2022-08-26T04:50:01.945Z,99.90
2022-08-26T04:52:29.139Z,99.90
2022-08-26T04:54:58.001Z,99.90
2022-08-26T04:57:25.011Z,99.90
2022-08-26T04:59:53.286Z,99.90
2022-08-26T05:02:20.434Z,99.90
2022-08-26T05:04:47.475Z,99.90
2022-08-26T05:07:18.893Z,99.90
2022-08-26T05:09:46.427Z,99.90
2022-08-26T05:12:13.391Z,99.90
2022-08-26T05:14:41.681Z,99.90
2022-08-26T05:17:09.375Z,99.90
2022-08-26T05:19:42.747Z,99.90
2022-08-26T05:22:10.044Z,99.90
2022-08-26T05:24:41.228Z,99.90
2022-08-26T05:27:11.608Z,99.90
2022-08-26T05:29:39.673Z,99.90
2022-08-26T05:32:07.154Z,99.90
2022-08-26T05:34:34.348Z,99.90
2022-08-26T05:37:01.989Z,99.90
2022-08-26T05:39:29.333Z,99.90
2022-08-26T05:41:56.557Z,99.90
2022-08-26T05:44:24.087Z,99.90
2022-08-26T05:46:51.937Z,99.90
2022-08-26T05:49:20.423Z,99.90
2022-08-26T05:51:49.614Z,99.90
2022-08-26T05:54:22.235Z,99.90
2022-08-26T05:56:50.272Z,99.90
2022-08-26T05:59:17.317Z,99.90
2022-08-26T06:01:51.088Z,99.90
2022-08-26T06:04:18.098Z,99.90
2022-08-26T06:06:47.346Z,99.90
2022-08-26T06:09:14.732Z,99.90
2022-08-26T06:11:45.449Z,99.90
2022-08-26T06:14:12.547Z,99.90
2022-08-26T06:16:41.362Z,99.90
2022-08-26T06:19:11.475Z,99.90
2022-08-26T06:21:40.810Z,99.90
2022-08-26T06:24:28.526Z,99.90
2022-08-26T06:27:01.697Z,99.90
2022-08-26T06:29:30.140Z,99.90
2022-08-26T06:31:57.317Z,99.90
2022-08-26T06:34:29.632Z,99.90
2022-08-26T06:36:58.768Z,99.90
2022-08-26T06:39:25.787Z,99.90
2022-08-26T06:41:53.112Z,99.90
2022-08-26T06:44:21.004Z,99.90
2022-08-26T06:46:50.495Z,99.90
2022-08-26T06:49:26.568Z,99.90
2022-08-26T06:51:55.398Z,99.90
2022-08-26T06:54:22.493Z,99.90
2022-08-26T06:56:49.718Z,99.90
2022-08-26T06:59:16.908Z,99.90
2022-08-26T07:01:45.290Z,99.90
2022-08-26T07:04:15.635Z,99.90
2022-08-26T07:06:47.223Z,99.90
2022-08-26T07:09:14.869Z,99.90
2022-08-26T07:11:41.871Z,99.90
2022-08-26T07:14:09.213Z,99.90
2022-08-26T07:16:36.481Z,99.90
2022-08-26T07:19:11.094Z,99.90
2022-08-26T07:21:40.453Z,99.90
2022-08-26T07:24:08.154Z,99.90
2022-08-26T07:26:35.393Z,99.90
2022-08-26T07:29:02.543Z,99.90
2022-08-26T07:31:34.719Z,99.90
2022-08-26T07:36:35.012Z,99.90
2022-08-26T07:44:01.530Z,99.90
2022-08-26T07:46:30.224Z,99.90
2022-08-26T07:48:57.996Z,99.80
2022-08-26T07:51:25.658Z,98.40
2022-08-26T07:53:53.358Z,97.70
2022-08-26T07:56:24.011Z,96.00
2022-08-26T07:58:53.174Z,95.10
2022-08-26T08:01:21.261Z,95.30
2022-08-26T08:03:51.539Z,95.10
2022-08-26T08:06:22.906Z,93.50
2022-08-26T08:08:54.665Z,91.80
2022-08-26T08:11:21.982Z,91.50
2022-08-26T08:13:49.926Z,90.40
2022-08-26T08:16:25.003Z,89.50
2022-08-26T08:18:53.725Z,87.10
2022-08-26T08:21:21.298Z,84.90
2022-08-26T08:23:51.938Z,84.10
2022-08-26T08:26:19.008Z,83.70
2022-08-26T08:28:47.840Z,82.80
2022-08-26T08:31:21.618Z,84.20
2022-08-26T08:34:00.342Z,87.70
2022-08-26T08:36:27.666Z,91.40
2022-08-26T08:39:03.236Z,91.90
2022-08-26T08:41:36.546Z,92.60
2022-08-26T08:44:04.463Z,93.80
2022-08-26T08:46:31.593Z,94.80
2022-08-26T08:49:00.072Z,95.50
2022-08-26T08:51:33.505Z,95.60
2022-08-26T08:54:00.757Z,95.10
2022-08-26T08:56:38.234Z,94.60
2022-08-26T08:59:17.991Z,92.40
2022-08-26T09:01:45.251Z,91.00
2022-08-26T09:04:17.278Z,90.90
2022-08-26T09:06:45.719Z,90.60
2022-08-26T09:09:16.754Z,90.10
2022-08-26T09:14:11.447Z,83.00
2022-08-26T09:16:47.163Z,81.50
2022-08-26T09:19:21.134Z,76.50
2022-08-26T09:21:54.830Z,75.40
2022-08-26T09:24:24.167Z,75.30
2022-08-26T09:26:58.335Z,76.40
2022-08-26T09:29:27.484Z,77.30
2022-08-26T09:32:13.593Z,77.40
2022-08-26T09:34:53.418Z,75.00
2022-08-26T09:37:37.419Z,76.20
2022-08-26T09:40:17.381Z,74.60
2022-08-26T09:42:44.580Z,73.80
2022-08-26T11:04:19.760Z,55.90
2022-08-26T11:06:50.013Z,56.10
2022-08-26T11:09:46.247Z,54.70
2022-08-26T11:12:33.164Z,55.40
2022-08-26T11:15:00.720Z,55.10
2022-08-26T11:17:46.701Z,55.90
2022-08-26T11:20:23.878Z,56.00
2022-08-26T11:22:51.519Z,54.80
2022-08-26T11:25:19.269Z,53.70
2022-08-26T11:27:49.956Z,53.70
2022-08-26T11:30:18.301Z,54.90
2022-08-26T11:32:48.863Z,57.90
2022-08-26T11:35:21.926Z,58.80
2022-08-26T11:37:57.452Z,58.80
2022-08-26T11:40:29.678Z,57.80
2022-08-26T11:43:00.736Z,56.50
2022-08-26T11:45:34.146Z,55.60
2022-08-26T11:48:16.811Z,56.90
2022-08-26T11:50:57.244Z,57.70
2022-08-26T11:53:26.100Z,59.20
2022-08-26T11:55:55.147Z,59.10
2022-08-26T11:58:23.557Z,59.60
2022-08-26T12:00:58.108Z,61.60
2022-08-26T12:03:35.882Z,66.10
2022-08-26T12:06:03.250Z,62.70
2022-08-26T12:08:33.056Z,62.30
2022-08-26T12:11:03.973Z,59.60
2022-08-26T12:13:30.997Z,60.70
2022-08-26T12:15:59.704Z,61.50
2022-08-26T12:18:30.145Z,61.50
2022-08-26T12:21:01.623Z,62.10
2022-08-26T12:23:47.570Z,62.40
2022-08-26T12:26:22.568Z,62.70
2022-08-26T12:28:53.055Z,61.20
2022-08-26T12:31:22.582Z,62.50
2022-08-26T12:33:49.923Z,65.20
2022-08-26T12:36:22.988Z,66.20
2022-08-26T12:38:50.232Z,66.30
2022-08-26T12:41:35.781Z,67.40
2022-08-26T12:44:02.918Z,67.20
2022-08-26T12:46:29.998Z,68.40
2022-08-26T12:49:01.261Z,68.70
2022-08-26T12:51:30.836Z,70.00
2022-08-26T12:53:58.195Z,71.60
2022-08-26T12:56:34.196Z,72.90
2022-08-26T12:59:02.997Z,74.80
2022-08-26T13:03:58.057Z,78.40
2022-08-26T13:06:29.586Z,79.50
2022-08-26T13:09:22.410Z,80.00
2022-08-26T13:11:49.566Z,79.90
2022-08-26T13:14:21.212Z,80.40
2022-08-26T13:16:51.999Z,80.90
2022-08-26T13:19:20.981Z,83.30
2022-08-26T13:21:49.478Z,81.20
2022-08-26T13:24:32.126Z,80.90
2022-08-26T13:27:07.163Z,80.50
2022-08-26T13:29:34.226Z,80.90
2022-08-26T13:32:02.081Z,81.70
2022-08-26T13:34:30.012Z,82.70
2022-08-26T13:36:57.878Z,82.30
2022-08-26T13:39:25.548Z,83.20
2022-08-26T13:41:53.318Z,83.90
2022-08-26T13:44:20.546Z,83.40
2022-08-26T13:46:47.530Z,83.90
2022-08-26T13:49:14.652Z,84.40
2022-08-26T13:51:42.085Z,84.70
2022-08-26T13:54:09.427Z,84.70
2022-08-26T13:56:36.512Z,85.30
2022-08-26T13:59:03.739Z,87.00
2022-08-26T14:01:31.527Z,87.80
2022-08-26T14:03:58.872Z,87.40
2022-08-26T14:06:25.975Z,87.80
2022-08-26T14:08:52.981Z,88.70
2022-08-26T14:11:20.655Z,88.50
2022-08-26T14:13:47.637Z,88.20
2022-08-26T14:18:45.194Z,99.90
2022-08-26T14:21:14.543Z,99.90
2022-08-26T14:23:41.754Z,99.90
2022-08-26T14:26:14.363Z,99.90
2022-08-26T14:28:57.015Z,99.90
2022-08-26T14:31:27.055Z,99.90
2022-08-26T14:33:55.134Z,99.90
2022-08-26T14:36:28.296Z,99.90
2022-08-26T14:38:56.124Z,99.90
2022-08-26T14:41:25.536Z,99.90
2022-08-26T14:44:00.078Z,98.90
2022-08-26T14:46:32.780Z,97.10
2022-08-26T14:49:13.081Z,96.30
2022-08-26T14:51:43.866Z,96.10
2022-08-26T14:54:14.598Z,94.00
2022-08-26T14:56:49.238Z,94.50
2022-08-26T14:59:18.057Z,94.60
2022-08-26T15:01:45.679Z,95.20
2022-08-26T15:04:13.166Z,94.90
2022-08-26T15:06:41.303Z,95.80
2022-08-26T15:09:08.718Z,96.60
2022-08-26T15:11:36.209Z,97.10
2022-08-26T15:14:03.431Z,98.20
2022-08-26T15:16:31.047Z,98.60
2022-08-26T15:19:00.733Z,99.80
2022-08-26T15:21:28.606Z,99.90
2022-08-26T15:23:55.690Z,99.90
2022-08-26T15:26:23.726Z,99.90
2022-08-26T15:28:51.215Z,99.90
2022-08-26T15:31:18.575Z,99.90
2022-08-26T15:33:45.931Z,99.90
2022-08-26T15:36:13.069Z,99.90
2022-08-26T15:38:41.512Z,99.90
2022-08-26T15:41:09.003Z,99.90
2022-08-26T15:43:38.974Z,99.90
2022-08-26T15:46:10.505Z,99.90
2022-08-26T15:48:38.576Z,99.90
2022-08-26T15:51:06.237Z,99.90
2022-08-26T15:53:33.980Z,99.90
2022-08-26T15:56:01.577Z,99.90
2022-08-26T15:58:29.256Z,99.90
2022-08-26T16:00:56.607Z,99.90
2022-08-26T16:03:23.610Z,99.90
2022-08-26T16:05:50.867Z,99.90
2022-08-26T16:08:18.183Z,99.90
2022-08-26T16:10:50.074Z,99.90
2022-08-26T16:13:18.474Z,99.90
2022-08-26T16:15:46.200Z,99.90
2022-08-26T16:18:14.069Z,99.90
2022-08-26T16:20:55.284Z,99.90
2022-08-26T16:23:35.341Z,99.90
2022-08-26T16:26:13.143Z,99.90
2022-08-26T16:28:40.269Z,99.90
2022-08-26T16:31:07.648Z,99.90
2022-08-26T16:33:34.700Z,99.90
2022-08-26T16:36:01.814Z,99.90
2022-08-26T16:38:28.888Z,99.90
2022-08-26T16:40:56.149Z,99.90
2022-08-26T16:43:23.377Z,99.90
2022-08-26T16:45:50.537Z,99.90
2022-08-26T16:48:18.245Z,99.90
2022-08-26T16:50:45.293Z,99.90
2022-08-26T16:55:45.121Z,99.90
2022-08-26T16:58:12.318Z,99.90
2022-08-26T17:00:39.371Z,99.90
2022-08-26T17:03:06.799Z,99.90
2022-08-26T17:05:34.028Z,99.90
2022-08-26T17:08:01.141Z,99.90
2022-08-26T17:10:29.090Z,99.90
2022-08-26T17:12:56.796Z,99.90
2022-08-26T17:15:23.975Z,99.90
2022-08-26T17:17:52.077Z,99.90
2022-08-26T17:20:19.805Z,99.90
2022-08-26T17:22:47.825Z,99.90
2022-08-26T17:25:17.994Z,99.90
2022-08-26T17:27:45.788Z,99.90
2022-08-26T17:30:13.746Z,99.90
2022-08-26T17:32:42.394Z,99.90
2022-08-26T17:35:10.423Z,99.90
2022-08-26T17:37:40.224Z,99.90
2022-08-26T17:40:09.919Z,99.90
2022-08-26T17:42:38.018Z,99.90
2022-08-26T17:45:06.232Z,99.90
2022-08-26T17:47:35.604Z,99.90
2022-08-26T17:50:03.397Z,99.90
2022-08-26T17:52:30.654Z,99.90
2022-08-26T17:54:57.778Z,99.90
2022-08-26T17:57:25.273Z,99.90
2022-08-26T17:59:52.831Z,99.90
2022-08-26T18:02:20.413Z,99.90
2022-08-26T18:04:47.440Z,99.90
2022-08-26T18:07:15.236Z,99.90
2022-08-26T18:09:42.619Z,99.90
2022-08-26T18:12:09.799Z,99.90
2022-08-26T18:14:36.801Z,99.90
2022-08-26T18:17:04.013Z,99.90
2022-08-26T18:19:31.548Z,99.90
2022-08-26T18:21:58.857Z,99.90
2022-08-26T18:24:28.827Z,99.90
2022-08-26T18:26:56.080Z,99.90
2022-08-26T18:29:25.432Z,99.90
2022-08-26T18:31:52.438Z,99.90
2022-08-26T18:34:19.897Z,99.90
2022-08-26T18:36:47.047Z,99.90
2022-08-26T18:39:15.090Z,99.90
2022-08-26T18:41:49.448Z,99.90
2022-08-26T18:44:17.638Z,99.90
2022-08-26T18:46:45.672Z,99.90
2022-08-26T18:49:13.779Z,99.90
2022-08-26T18:51:41.556Z,99.90
2022-08-26T18:54:08.718Z,99.90
2022-08-26T18:56:36.948Z,99.90
2022-08-26T18:59:05.039Z,99.90
2022-08-26T19:01:32.955Z,99.90
2022-08-26T19:04:01.404Z,99.90
2022-08-26T19:06:29.807Z,99.90
2022-08-26T19:08:58.027Z,99.90
2022-08-26T19:11:31.648Z,99.90
2022-08-26T19:14:01.161Z,99.90
2022-08-26T19:16:28.512Z,99.90
2022-08-26T19:18:56.279Z,99.90
2022-08-26T19:21:23.332Z,99.90
2022-08-26T19:23:50.735Z,99.90
2022-08-26T19:26:18.494Z,99.90
2022-08-26T19:28:45.515Z,99.90
2022-08-26T19:31:12.548Z,99.90
2022-08-26T19:33:40.784Z,99.90
2022-08-26T19:36:14.119Z,99.90
2022-08-26T19:38:42.908Z,99.90
2022-08-26T19:41:19.579Z,99.90
2022-08-26T19:43:47.236Z,99.90
2022-08-26T19:46:17.443Z,99.90
2022-08-26T19:48:44.641Z,99.90
2022-08-26T19:51:16.338Z,99.90
2022-08-26T19:53:44.213Z,99.90
2022-08-26T19:56:11.512Z,99.90
2022-08-26T19:58:38.822Z,99.90
2022-08-26T20:01:06.190Z,99.90
2022-08-26T20:03:34.056Z,99.90
2022-08-26T20:06:02.437Z,99.90
2022-08-26T20:08:29.393Z,99.90
2022-08-26T20:10:58.296Z,99.90
2022-08-26T20:13:25.279Z,99.90
2022-08-26T20:15:52.210Z,99.90
2022-08-26T20:18:37.816Z,99.90
2022-08-26T20:21:23.519Z,99.90
2022-08-26T20:23:51.782Z,99.90
2022-08-26T20:26:19.140Z,99.90
2022-08-26T20:28:46.146Z,99.90
2022-08-26T20:31:15.026Z,99.90
2022-08-26T20:33:46.360Z,99.90
2022-08-26T20:36:15.238Z,99.90
2022-08-26T20:38:42.250Z,99.90
2022-08-26T20:41:09.393Z,99.90
2022-08-26T20:43:36.658Z,99.90
2022-08-26T20:46:03.977Z,99.90
2022-08-26T20:48:35.380Z,99.90
2022-08-26T20:51:02.414Z,99.90
2022-08-26T20:53:29.932Z,99.90
2022-08-26T20:56:00.785Z,99.90
2022-08-26T20:58:27.892Z,99.90
2022-08-26T21:00:55.564Z,99.90
2022-08-26T21:03:23.141Z,99.90
2022-08-26T21:05:50.724Z,99.90
2022-08-26T21:08:17.726Z,99.90
2022-08-26T21:10:45.775Z,99.90
2022-08-26T21:13:12.937Z,99.90
2022-08-26T21:15:40.134Z,99.90
2022-08-26T21:18:07.250Z,99.90
2022-08-26T21:20:34.613Z,99.90
2022-08-26T21:23:01.619Z,99.90
2022-08-26T21:25:28.709Z,99.90
2022-08-26T21:27:56.615Z,99.90
2022-08-26T21:30:23.744Z,99.90
2022-08-26T21:32:50.842Z,99.90
2022-08-26T21:35:17.984Z,99.90
2022-08-26T21:37:45.001Z,99.90
2022-08-26T21:40:12.313Z,99.90
2022-08-26T21:42:39.333Z,99.90
2022-08-26T21:45:06.915Z,99.90
2022-08-26T21:47:33.945Z,99.90
2022-08-26T21:50:01.153Z,99.90
2022-08-26T21:52:28.337Z,99.90
2022-08-26T21:54:59.692Z,99.90
2022-08-26T21:57:27.897Z,99.90
2022-08-26T21:59:54.897Z,99.90
2022-08-26T22:02:22.318Z,99.90
2022-08-26T22:04:49.415Z,99.90
2022-08-26T22:07:18.246Z,99.90
2022-08-26T22:09:45.401Z,99.90
2022-08-26T22:12:13.167Z,99.90
2022-08-26T22:14:40.254Z,99.90
2022-08-26T22:17:07.377Z,99.90
2022-08-26T22:19:39.105Z,99.90
2022-08-26T22:22:13.903Z,99.90
2022-08-26T22:24:41.226Z,99.90
2022-08-26T22:27:08.242Z,99.90
2022-08-26T22:29:35.330Z,99.90
2022-08-26T22:32:02.632Z,99.90
2022-08-26T22:34:29.650Z,99.90
2022-08-26T22:36:56.865Z,99.90
2022-08-26T22:39:25.083Z,99.90
2022-08-26T22:41:53.206Z,99.90
2022-08-26T22:44:21.133Z,99.90
2022-08-26T22:46:48.789Z,99.90
2022-08-26T22:49:18.557Z,99.90
2022-08-26T22:51:46.021Z,99.90
2022-08-26T22:54:13.770Z,99.90
2022-08-26T22:56:41.104Z,99.90
2022-08-26T22:59:08.394Z,99.90
2022-08-26T23:01:36.514Z,99.90
2022-08-26T23:04:04.440Z,99.90
2022-08-26T23:06:31.493Z,99.90
2022-08-26T23:08:58.545Z,99.90
2022-08-26T23:11:25.620Z,99.90
2022-08-26T23:13:52.731Z,99.90
2022-08-26T23:16:19.841Z,99.90
2022-08-26T23:18:47.250Z,99.90
2022-08-26T23:21:14.403Z,99.90
2022-08-26T23:23:41.857Z,99.90
2022-08-26T23:26:09.199Z,99.90
2022-08-26T23:28:36.977Z,99.90
2022-08-26T23:31:04.313Z,99.90
2022-08-26T23:33:51.417Z,99.90
2022-08-26T23:36:22.868Z,99.90
2022-08-26T23:38:52.868Z,99.90
2022-08-26T23:41:21.511Z,99.90
2022-08-26T23:43:49.137Z,99.90
2022-08-26T23:46:16.268Z,99.90
2022-08-26T23:48:43.499Z,99.90
2022-08-26T23:51:29.112Z,99.90
2022-08-26T23:53:56.260Z,99.90
2022-08-26T23:56:23.318Z,99.90
2022-08-26T23:58:50.365Z,99.90
